Sylvan Lake, Michigan
Current Conditions -  °F | °C
As of 10:53 AM on Sunday 23 Nov 2014 (Local Time) from KPTK Reporting Station
Light Rain Light Rain  
Wind Chill: 42°   Ceiling: 700
Heat Index: 46°   Visibility: 3mi
Dew Point: 43°   Wind: 8mph
Humidity: 89%   Direction: 180°S
Pressure: 29.88"   Gusts: NA
Location:  42.6112°N, 83.3377°W
Report Text: KPTK 231553Z 18007KT 3SM -RA BR BKN007 OVC060 08/06 A2988 RMK AO2 SLP123 P0002 T00780061
Loading
Personal Weather Stations






























Interactive Weather Map New forecast layout! Learn more

10-Day Weather Forecast

Advertisements
Track Severe Weather on mobile